Time;durP1;ratioP1;P1;durP2;ratioP2;P2;SDS_P1;SDS_P2;PMS_P1;PMS_P2;Temp;Humidity;BMP_temperature;BMP_pressure;BME280_temperature;BME280_humidity;BME280_pressure;Samples;Min_cycle;Max_cycle;Signal;HPM_P1;HPM_P2
2021/12/18 00:00:50;;;;;;;1.53;1.20;;;6.90;99.90;;;;;;5122797;28;20445;-57
2021/12/18 00:03:19;;;;;;;2.20;1.57;;;6.90;99.90;;;;;;5120550;28;20502;-56
2021/12/18 00:05:45;;;;;;;2.20;1.70;;;7.00;99.90;;;;;;5122524;28;20438;-56
2021/12/18 00:08:14;;;;;;;3.33;2.10;;;7.00;99.90;;;;;;5121500;28;20481;-56
2021/12/18 00:10:41;;;;;;;2.80;1.97;;;6.90;99.90;;;;;;5122075;28;20471;-54
2021/12/18 00:13:10;;;;;;;2.70;1.70;;;6.80;99.90;;;;;;5122243;28;20457;-55
2021/12/18 00:15:37;;;;;;;2.87;1.93;;;6.80;99.90;;;;;;5121808;28;20500;-55
2021/12/18 00:18:04;;;;;;;2.20;1.43;;;6.80;99.90;;;;;;5121423;28;20642;-55
2021/12/18 00:20:35;;;;;;;3.37;2.10;;;6.90;99.90;;;;;;5121638;28;20520;-56
2021/12/18 00:23:02;;;;;;;2.90;2.30;;;6.90;99.90;;;;;;5123874;28;20465;-51
2021/12/18 00:25:28;;;;;;;3.67;2.03;;;6.90;99.90;;;;;;5118407;28;20454;-56
2021/12/18 00:27:55;;;;;;;3.60;2.07;;;6.90;99.90;;;;;;5110352;28;20453;-55
2021/12/18 00:30:25;;;;;;;6.43;1.50;;;6.90;99.90;;;;;;5101469;28;20446;-57
2021/12/18 00:32:52;;;;;;;2.13;1.63;;;6.80;99.90;;;;;;5101588;28;20589;-56
2021/12/18 00:35:19;;;;;;;2.27;1.73;;;6.80;99.90;;;;;;5100786;28;20498;-56
2021/12/18 00:37:46;;;;;;;1.77;1.57;;;6.80;99.90;;;;;;5101355;28;20466;-57
2021/12/18 00:40:19;;;;;;;2.50;1.60;;;6.80;99.90;;;;;;5101241;28;20450;-54
2021/12/18 00:42:49;;;;;;;2.40;1.70;;;6.80;99.90;;;;;;5100864;28;20877;-55
2021/12/18 00:45:18;;;;;;;2.17;1.60;;;6.80;99.90;;;;;;5100972;28;20476;-55
2021/12/18 00:47:47;;;;;;;3.73;2.13;;;6.90;99.90;;;;;;5100357;28;20438;-56
2021/12/18 00:50:16;;;;;;;4.40;2.17;;;6.90;99.90;;;;;;5100583;28;20478;-55
2021/12/18 00:52:43;;;;;;;4.10;1.57;;;6.90;99.90;;;;;;5100412;28;20446;-55
2021/12/18 00:55:10;;;;;;;3.30;2.00;;;7.00;99.90;;;;;;5100500;28;20470;-54
2021/12/18 00:57:39;;;;;;;2.30;1.70;;;7.00;99.90;;;;;;5105465;28;20491;-54
2021/12/18 01:00:08;;;;;;;2.00;1.50;;;7.00;99.90;;;;;;5104557;28;20465;-55
2021/12/18 01:02:36;;;;;;;4.63;1.53;;;7.00;99.90;;;;;;5100780;28;20872;-56
2021/12/18 01:05:05;;;;;;;4.53;2.50;;;7.00;99.90;;;;;;5100701;28;20533;-51
2021/12/18 01:07:34;;;;;;;4.30;1.60;;;6.90;99.90;;;;;;5099671;28;20706;-55
2021/12/18 01:10:03;;;;;;;1.77;1.50;;;6.90;99.90;;;;;;5110314;28;20491;-56
2021/12/18 01:12:35;;;;;;;2.50;1.67;;;6.90;99.90;;;;;;5119767;28;20441;-57
2021/12/18 01:15:14;;;;;;;2.83;1.53;;;7.00;99.90;;;;;;5119289;28;20469;-54
2021/12/18 01:23:12;;;;;;;2.00;1.77;;;7.10;99.90;;;;;;5121204;28;20530;-53
2021/12/18 01:25:40;;;;;;;2.40;1.73;;;7.10;99.90;;;;;;5119497;28;20437;-56
2021/12/18 01:28:06;;;;;;;2.53;2.00;;;7.10;99.90;;;;;;5120281;28;20457;-52
2021/12/18 01:30:34;;;;;;;2.23;1.80;;;7.10;99.90;;;;;;5122139;28;20445;-52
2021/12/18 01:33:01;;;;;;;2.80;1.87;;;7.10;99.90;;;;;;5122120;28;20467;-51
2021/12/18 01:35:29;;;;;;;2.10;1.90;;;7.00;99.90;;;;;;5128697;28;20441;-55
2021/12/18 01:37:57;;;;;;;1.50;1.40;;;7.00;99.90;;;;;;5132273;28;20445;-54
2021/12/18 01:40:24;;;;;;;4.30;1.77;;;7.00;99.90;;;;;;5132758;28;20465;-51
2021/12/18 01:46:00;;;;;;;3.60;1.93;;;6.90;99.90;;;;;;5101587;28;20431;-53
2021/12/18 01:51:19;;;;;;;3.30;1.77;;;6.80;99.90;;;;;;5125504;28;20429;-53
2021/12/18 01:53:46;;;;;;;2.90;1.37;;;6.70;99.90;;;;;;5124838;28;20504;-53
2021/12/18 01:56:14;;;;;;;2.10;1.50;;;6.70;99.90;;;;;;5124257;28;20506;-55
2021/12/18 01:58:43;;;;;;;3.47;1.53;;;6.70;99.90;;;;;;5124392;28;20433;-52
2021/12/18 02:01:12;;;;;;;2.30;1.30;;;6.70;99.90;;;;;;5125151;28;20456;-53
2021/12/18 02:03:39;;;;;;;2.20;1.50;;;6.70;99.90;;;;;;5123933;28;20445;-48
2021/12/18 02:06:06;;;;;;;2.13;1.30;;;6.80;99.90;;;;;;5125432;28;20468;-51
2021/12/18 02:08:36;;;;;;;2.17;1.27;;;6.80;99.90;;;;;;5125244;28;20471;-55
2021/12/18 02:11:13;;;;;;;2.43;1.70;;;6.80;99.90;;;;;;5124663;28;20501;-54
2021/12/18 02:14:03;;;;;;;2.70;1.70;;;6.70;99.90;;;;;;5123901;28;20465;-54
2021/12/18 02:19:50;;;;;;;3.20;1.70;;;6.80;99.90;;;;;;5124164;28;20480;-53
2021/12/18 02:22:20;;;;;;;5.10;2.33;;;6.90;99.90;;;;;;5123500;28;20489;-53
2021/12/18 02:24:47;;;;;;;3.73;2.33;;;6.90;99.90;;;;;;5123403;28;20435;-53
2021/12/18 02:27:14;;;;;;;3.10;2.60;;;6.90;99.90;;;;;;5127000;28;20449;-55
2021/12/18 02:29:45;;;;;;;1.53;1.30;;;6.90;99.90;;;;;;5126840;28;20487;-55
2021/12/18 02:32:15;;;;;;;3.30;2.37;;;6.90;99.90;;;;;;5127053;28;20482;-50
2021/12/18 02:34:51;;;;;;;5.50;2.93;;;6.90;99.90;;;;;;5126509;28;20437;-56
2021/12/18 02:37:24;;;;;;;4.40;1.60;;;6.80;99.90;;;;;;5127380;28;20513;-56
2021/12/18 02:42:35;;;;;;;2.80;1.63;;;6.90;99.90;;;;;;5128017;28;20489;-54
2021/12/18 02:45:05;;;;;;;8.77;2.20;;;6.80;99.90;;;;;;5127415;28;20501;-52
2021/12/18 02:47:32;;;;;;;2.37;1.97;;;6.80;99.90;;;;;;5127423;28;20429;-55
2021/12/18 02:49:59;;;;;;;2.90;1.50;;;6.80;99.90;;;;;;5127296;28;20480;-56
2021/12/18 02:52:31;;;;;;;2.53;2.33;;;6.90;99.90;;;;;;5126750;28;20477;-51
2021/12/18 02:54:58;;;;;;;3.47;3.17;;;6.90;99.90;;;;;;5127397;28;20425;-53
2021/12/18 02:57:25;;;;;;;2.80;1.90;;;6.80;99.90;;;;;;5127414;28;20445;-55
2021/12/18 02:59:54;;;;;;;3.83;2.27;;;6.80;99.90;;;;;;5127599;28;20809;-54
2021/12/18 03:02:22;;;;;;;3.83;2.50;;;6.80;99.90;;;;;;5127487;28;20441;-53
2021/12/18 03:04:54;;;;;;;3.03;1.70;;;6.80;99.90;;;;;;5127647;28;20542;-55
2021/12/18 03:07:23;;;;;;;2.90;1.80;;;6.70;99.90;;;;;;5127345;28;20437;-54
2021/12/18 03:23:57;;;;;;;3.27;1.97;;;6.90;99.90;;;;;;5046054;28;20784;-54
2021/12/18 03:26:25;;;;;;;3.20;2.17;;;6.90;99.90;;;;;;5044701;28;20421;-54
2021/12/18 03:28:52;;;;;;;2.53;2.00;;;7.00;99.90;;;;;;5083934;28;20448;-53
2021/12/18 03:31:18;;;;;;;2.73;2.10;;;7.00;99.90;;;;;;5125532;28;20484;-55
2021/12/18 03:33:45;;;;;;;3.67;2.00;;;7.10;99.90;;;;;;5124947;28;20449;-53
2021/12/18 03:36:13;;;;;;;6.80;2.50;;;7.10;99.90;;;;;;5124755;28;20498;-55
2021/12/18 03:38:40;;;;;;;2.60;1.60;;;7.10;99.90;;;;;;5124498;28;20448;-50
2021/12/18 03:41:07;;;;;;;5.10;2.10;;;7.10;99.90;;;;;;5124765;28;20528;-51
2021/12/18 03:43:35;;;;;;;3.87;2.20;;;7.10;99.90;;;;;;5124988;28;20470;-55
2021/12/18 03:46:01;;;;;;;3.73;2.50;;;7.10;99.90;;;;;;5124856;28;21001;-55
2021/12/18 03:48:28;;;;;;;4.60;1.57;;;7.20;99.90;;;;;;5124632;28;20445;-55
2021/12/18 03:50:55;;;;;;;4.00;2.63;;;7.20;99.90;;;;;;5124917;28;20562;-56
2021/12/18 03:53:21;;;;;;;5.43;2.50;;;7.20;99.90;;;;;;5124742;28;20469;-50
2021/12/18 03:55:48;;;;;;;4.23;2.67;;;7.10;99.90;;;;;;5124507;28;20440;-55
2021/12/18 03:58:15;;;;;;;2.93;2.33;;;7.20;99.90;;;;;;5125492;28;20522;-53
2021/12/18 04:00:43;;;;;;;8.83;2.60;;;7.10;99.90;;;;;;5125625;28;20438;-56
2021/12/18 04:03:10;;;;;;;4.40;2.70;;;7.10;99.90;;;;;;5125506;28;20453;-53
2021/12/18 04:05:37;;;;;;;4.20;2.93;;;7.10;99.90;;;;;;5125222;28;20471;-56
2021/12/18 04:08:09;;;;;;;3.57;2.40;;;7.10;99.90;;;;;;5125176;28;20444;-55
2021/12/18 04:10:38;;;;;;;5.23;3.53;;;7.10;99.90;;;;;;5124441;28;20469;-54
2021/12/18 04:13:06;;;;;;;4.93;3.07;;;7.00;99.90;;;;;;5124676;28;20516;-56
2021/12/18 04:15:33;;;;;;;5.80;3.63;;;7.00;99.90;;;;;;5124208;28;20453;-56
2021/12/18 04:18:01;;;;;;;3.30;2.27;;;7.10;99.90;;;;;;5125323;28;20534;-53
2021/12/18 04:20:31;;;;;;;5.33;3.83;;;6.90;99.90;;;;;;5125640;28;20466;-51
2021/12/18 04:22:57;;;;;;;4.07;2.27;;;6.90;99.90;;;;;;5125188;28;20452;-53
2021/12/18 04:25:24;;;;;;;5.67;2.77;;;6.90;99.90;;;;;;5125420;28;20441;-54
2021/12/18 04:27:51;;;;;;;4.20;2.47;;;6.90;99.90;;;;;;5125036;28;20470;-51
2021/12/18 04:30:18;;;;;;;6.80;2.40;;;6.90;99.90;;;;;;5124534;28;20484;-56
2021/12/18 04:32:45;;;;;;;4.53;2.30;;;6.80;99.90;;;;;;5124120;28;20457;-56
2021/12/18 04:35:17;;;;;;;5.47;2.17;;;6.80;99.90;;;;;;5126142;28;20432;-52
2021/12/18 04:37:44;;;;;;;4.00;2.53;;;6.70;99.90;;;;;;5126904;28;20425;-55
2021/12/18 04:40:11;;;;;;;5.83;2.67;;;6.70;99.90;;;;;;5126780;28;20445;-55
2021/12/18 04:42:38;;;;;;;4.60;2.33;;;6.70;99.90;;;;;;5125902;28;20461;-53
2021/12/18 04:45:06;;;;;;;2.73;2.13;;;6.70;99.90;;;;;;5125592;28;20452;-54
2021/12/18 04:47:32;;;;;;;5.20;2.43;;;6.70;99.90;;;;;;5125332;28;20438;-52
2021/12/18 04:49:59;;;;;;;4.73;2.23;;;6.80;99.90;;;;;;5124975;28;20623;-56
2021/12/18 04:52:28;;;;;;;3.20;1.83;;;6.80;99.90;;;;;;5125897;28;20502;-54
2021/12/18 04:54:54;;;;;;;2.13;1.73;;;6.80;99.90;;;;;;5125798;28;20470;-54
2021/12/18 04:57:21;;;;;;;5.47;3.03;;;6.70;99.90;;;;;;5126813;28;20433;-51
2021/12/18 04:59:48;;;;;;;4.40;3.83;;;6.70;99.90;;;;;;5125611;28;20469;-56
2021/12/18 05:02:20;;;;;;;3.43;2.80;;;6.70;99.90;;;;;;5125536;28;20489;-55
2021/12/18 05:04:46;;;;;;;3.30;2.40;;;6.70;99.90;;;;;;5125625;28;20773;-54
2021/12/18 05:07:13;;;;;;;4.10;1.97;;;6.70;99.90;;;;;;5126662;28;20491;-53
2021/12/18 05:09:42;;;;;;;2.67;1.97;;;6.70;99.90;;;;;;5126111;28;20471;-51
2021/12/18 05:12:10;;;;;;;2.70;1.47;;;6.70;99.90;;;;;;5125011;28;20441;-55
2021/12/18 05:14:40;;;;;;;3.87;1.97;;;6.80;99.90;;;;;;5123627;28;20464;-53
2021/12/18 05:17:06;;;;;;;6.53;2.47;;;6.80;99.90;;;;;;5122893;28;20510;-54
2021/12/18 05:19:33;;;;;;;2.50;1.77;;;6.90;99.90;;;;;;5123647;28;20461;-51
2021/12/18 05:22:00;;;;;;;3.37;2.27;;;6.90;99.90;;;;;;5124436;28;20471;-53
2021/12/18 05:24:27;;;;;;;2.13;1.57;;;6.90;99.90;;;;;;5123846;28;20490;-55
2021/12/18 05:26:55;;;;;;;4.93;1.80;;;6.90;99.90;;;;;;5123679;28;20874;-52
2021/12/18 05:29:21;;;;;;;3.00;1.93;;;6.90;99.90;;;;;;5123678;28;20437;-54
2021/12/18 05:31:49;;;;;;;2.20;1.60;;;6.90;99.90;;;;;;5124422;28;20473;-54
2021/12/18 05:34:21;;;;;;;4.20;1.67;;;6.90;99.90;;;;;;5124016;28;20449;-54
2021/12/18 05:37:13;;;;;;;2.70;1.57;;;6.90;99.90;;;;;;5123316;28;20518;-55
2021/12/18 05:39:39;;;;;;;3.60;1.87;;;6.90;99.90;;;;;;5123497;28;20449;-56
2021/12/18 05:42:08;;;;;;;5.13;2.30;;;6.90;99.90;;;;;;5123755;28;20897;-56
2021/12/18 05:44:35;;;;;;;3.47;1.90;;;7.00;99.90;;;;;;5124179;28;20509;-54
2021/12/18 05:47:01;;;;;;;4.70;2.33;;;7.00;99.90;;;;;;5124454;28;20515;-51
2021/12/18 05:49:28;;;;;;;3.17;2.30;;;7.00;99.90;;;;;;5123611;28;20525;-54
2021/12/18 05:51:55;;;;;;;2.87;1.40;;;7.00;99.90;;;;;;5123098;28;20437;-54
2021/12/18 05:54:21;;;;;;;2.40;2.03;;;7.10;99.90;;;;;;5125467;28;20476;-60
2021/12/18 05:56:48;;;;;;;2.40;1.60;;;7.10;99.90;;;;;;5125928;28;20452;-55
2021/12/18 05:59:16;;;;;;;3.23;1.80;;;7.00;99.90;;;;;;5124783;28;20461;-55
2021/12/18 06:01:43;;;;;;;2.50;1.80;;;7.00;99.90;;;;;;5128256;28;20473;-55
2021/12/18 06:04:10;;;;;;;2.90;1.77;;;7.10;99.90;;;;;;5128972;28;20445;-55
2021/12/18 06:06:37;;;;;;;3.20;1.83;;;6.90;99.90;;;;;;5129161;28;20453;-53
2021/12/18 06:09:04;;;;;;;2.60;1.73;;;6.80;99.90;;;;;;5129473;28;20445;-54
2021/12/18 06:11:32;;;;;;;2.00;1.53;;;6.80;99.90;;;;;;5129724;28;20933;-55
2021/12/18 06:13:59;;;;;;;2.37;1.50;;;6.70;99.90;;;;;;5128980;28;20465;-55
2021/12/18 06:16:27;;;;;;;2.10;1.67;;;6.60;99.90;;;;;;5129402;28;20501;-56
2021/12/18 06:18:54;;;;;;;2.63;1.53;;;6.60;99.90;;;;;;5129081;28;20440;-56
2021/12/18 06:21:22;;;;;;;2.30;1.70;;;6.60;99.90;;;;;;5128723;28;20441;-55
2021/12/18 06:23:51;;;;;;;3.63;1.70;;;6.60;99.90;;;;;;5129744;28;20516;-53
2021/12/18 06:26:18;;;;;;;2.47;1.37;;;6.60;99.90;;;;;;5128618;28;20521;-55
2021/12/18 06:28:45;;;;;;;3.60;2.00;;;6.60;99.90;;;;;;5128729;28;20816;-55
2021/12/18 06:31:12;;;;;;;4.50;1.73;;;6.60;99.90;;;;;;5129282;28;20472;-54
2021/12/18 06:33:40;;;;;;;1.80;1.50;;;6.60;99.90;;;;;;5128519;28;20497;-55
2021/12/18 06:36:07;;;;;;;3.30;2.43;;;6.60;99.90;;;;;;5128613;28;20444;-56
2021/12/18 06:38:34;;;;;;;1.73;1.30;;;6.60;99.90;;;;;;5128962;28;20494;-54
2021/12/18 06:41:00;;;;;;;2.43;1.63;;;6.60;99.90;;;;;;5127330;28;20449;-54
2021/12/18 06:43:27;;;;;;;4.30;2.20;;;6.60;99.90;;;;;;5128336;28;20469;-55
2021/12/18 06:45:54;;;;;;;3.07;1.93;;;6.70;99.90;;;;;;5127884;28;20429;-52
2021/12/18 06:48:20;;;;;;;2.80;1.60;;;6.80;99.90;;;;;;5127507;28;20941;-51
2021/12/18 06:50:51;;;;;;;2.60;1.53;;;6.80;99.90;;;;;;5127800;28;21054;-56
2021/12/18 06:53:17;;;;;;;1.77;1.43;;;6.80;99.90;;;;;;5128287;28;20516;-51
2021/12/18 06:55:44;;;;;;;2.30;0.80;;;6.80;99.90;;;;;;5128321;28;20445;-53
2021/12/18 06:58:11;;;;;;;1.53;1.00;;;6.70;99.90;;;;;;5128517;28;20487;-55
2021/12/18 07:00:38;;;;;;;1.80;1.17;;;6.70;99.90;;;;;;5128947;28;20456;-54
2021/12/18 07:03:05;;;;;;;2.80;1.60;;;6.50;99.90;;;;;;5128477;28;20443;-54
2021/12/18 07:05:32;;;;;;;2.20;2.00;;;6.50;99.90;;;;;;5128900;28;20464;-55
2021/12/18 07:08:00;;;;;;;2.83;1.83;;;6.50;99.90;;;;;;5129178;28;20442;-55
2021/12/18 07:10:27;;;;;;;3.60;1.90;;;6.40;99.90;;;;;;5131312;28;20476;-53
2021/12/18 07:12:54;;;;;;;2.37;1.47;;;6.40;99.90;;;;;;5129839;28;20805;-53
2021/12/18 07:15:20;;;;;;;4.57;1.80;;;6.40;99.90;;;;;;5130049;28;20461;-53
2021/12/18 07:17:47;;;;;;;3.30;1.23;;;6.50;99.90;;;;;;5128549;28;20469;-56
2021/12/18 07:20:14;;;;;;;2.87;1.80;;;6.50;99.90;;;;;;5128264;28;20436;-55
2021/12/18 07:22:41;;;;;;;4.33;1.63;;;6.60;99.90;;;;;;5128119;28;20480;-52
2021/12/18 07:25:10;;;;;;;4.50;2.00;;;6.50;99.90;;;;;;5128043;28;20445;-55
2021/12/18 07:27:37;;;;;;;1.67;1.47;;;6.60;99.90;;;;;;5128005;28;20505;-53
2021/12/18 07:30:05;;;;;;;3.07;1.50;;;6.60;99.90;;;;;;5127344;28;20448;-53
2021/12/18 07:32:32;;;;;;;3.20;1.53;;;6.60;99.90;;;;;;5127252;28;20531;-55
2021/12/18 07:34:59;;;;;;;2.70;1.03;;;6.60;99.90;;;;;;5126964;28;20437;-55
2021/12/18 07:37:27;;;;;;;2.63;1.70;;;6.70;99.90;;;;;;5127074;28;20510;-54
2021/12/18 07:39:54;;;;;;;1.70;1.30;;;6.70;99.90;;;;;;5127851;28;20465;-55
2021/12/18 07:42:22;;;;;;;2.70;1.53;;;6.70;99.90;;;;;;5128361;28;20479;-53
2021/12/18 07:44:50;;;;;;;4.70;2.13;;;6.60;99.90;;;;;;5129552;28;20480;-53
2021/12/18 07:47:17;;;;;;;3.37;2.00;;;6.60;99.90;;;;;;5129459;28;20495;-54
2021/12/18 07:49:44;;;;;;;9.03;2.50;;;6.50;99.90;;;;;;5124570;28;20555;-56
2021/12/18 07:52:12;;;;;;;3.47;1.97;;;6.50;99.90;;;;;;5134035;28;20480;-58
2021/12/18 07:54:39;;;;;;;3.47;1.73;;;6.50;99.90;;;;;;5125229;28;20457;-53
2021/12/18 07:57:06;;;;;;;3.03;1.63;;;6.50;99.90;;;;;;5137222;28;20472;-52
2021/12/18 07:59:34;;;;;;;2.23;1.60;;;6.50;99.90;;;;;;5136420;28;20440;-50
2021/12/18 08:02:04;;;;;;;7.53;2.67;;;6.40;99.90;;;;;;5136992;28;20464;-56
2021/12/18 08:04:31;;;;;;;4.50;1.70;;;6.40;99.90;;;;;;5136474;28;20449;-52
2021/12/18 08:06:58;;;;;;;1.80;1.53;;;6.40;99.90;;;;;;5136050;28;20441;-55
2021/12/18 08:09:31;;;;;;;2.63;1.80;;;6.40;99.90;;;;;;5136189;28;20918;-54
2021/12/18 08:11:57;;;;;;;2.43;2.00;;;6.40;99.90;;;;;;5136156;28;20437;-51
2021/12/18 08:14:24;;;;;;;3.70;2.30;;;6.40;99.90;;;;;;5136449;28;20437;-52
2021/12/18 08:16:52;;;;;;;2.40;1.70;;;6.40;99.90;;;;;;5133037;28;20441;-50
2021/12/18 08:19:19;;;;;;;2.60;1.10;;;6.30;99.90;;;;;;5128342;28;20490;-52
2021/12/18 08:21:45;;;;;;;2.47;0.90;;;6.50;99.90;;;;;;5128797;28;20448;-51
2021/12/18 08:24:12;;;;;;;2.70;1.47;;;7.30;99.90;;;;;;5126469;28;20473;-55
2021/12/18 08:26:39;;;;;;;2.80;1.00;;;7.90;99.90;;;;;;5127158;28;20457;-55
2021/12/18 08:29:06;;;;;;;2.70;1.60;;;8.40;99.90;;;;;;5128389;28;20447;-52
2021/12/18 08:31:32;;;;;;;1.87;1.13;;;8.30;99.90;;;;;;5127312;28;20478;-51
2021/12/18 08:34:00;;;;;;;1.80;1.17;;;8.20;99.90;;;;;;5126187;28;20475;-52
2021/12/18 08:36:27;;;;;;;3.93;1.27;;;8.10;99.90;;;;;;5125560;28;20462;-53
2021/12/18 08:38:54;;;;;;;2.70;1.50;;;7.80;99.90;;;;;;5125940;28;20451;-55
2021/12/18 08:41:21;;;;;;;157.17;51.37;;;7.40;99.90;;;;;;5125894;28;20483;-54
2021/12/18 08:43:49;;;;;;;41.33;12.40;;;7.50;99.90;;;;;;5126751;28;20457;-54
2021/12/18 08:46:16;;;;;;;6.27;4.27;;;8.00;99.90;;;;;;5127645;28;20519;-56
2021/12/18 08:48:43;;;;;;;3.33;2.10;;;8.10;99.90;;;;;;5127447;28;20430;-51
2021/12/18 08:51:12;;;;;;;1.63;1.50;;;7.70;99.90;;;;;;5127207;28;20481;-55
2021/12/18 08:53:39;;;;;;;1.70;1.37;;;7.40;99.90;;;;;;5130444;28;20441;-55
2021/12/18 08:56:06;;;;;;;1.77;1.10;;;6.90;99.90;;;;;;5130165;28;20935;-55
2021/12/18 08:58:33;;;;;;;1.23;0.70;;;6.80;99.90;;;;;;5128790;28;20534;-54
2021/12/18 09:01:00;;;;;;;1.63;1.07;;;6.60;99.90;;;;;;5130173;28;20445;-56
2021/12/18 09:03:27;;;;;;;1.20;0.90;;;6.50;99.90;;;;;;5129442;28;20992;-56
2021/12/18 09:05:54;;;;;;;1.33;1.07;;;6.40;99.90;;;;;;5126310;28;20453;-55
2021/12/18 09:08:23;;;;;;;2.80;1.70;;;6.30;99.90;;;;;;5120583;28;20456;-52
2021/12/18 09:10:50;;;;;;;2.80;1.93;;;6.40;99.90;;;;;;5120856;28;20960;-55
2021/12/18 09:13:18;;;;;;;2.53;1.37;;;6.40;99.90;;;;;;5120896;28;20437;-55
2021/12/18 09:15:45;;;;;;;1.70;1.23;;;6.30;99.90;;;;;;5120452;28;20456;-51
2021/12/18 09:18:12;;;;;;;1.47;1.00;;;6.40;99.90;;;;;;5120797;28;20445;-55
2021/12/18 09:20:41;;;;;;;2.20;1.40;;;6.40;99.90;;;;;;5119719;28;20926;-56
2021/12/18 09:23:08;;;;;;;1.73;1.43;;;6.40;99.90;;;;;;5119497;28;20449;-55
2021/12/18 09:25:37;;;;;;;1.70;1.10;;;6.30;99.90;;;;;;5119369;28;20480;-52
2021/12/18 09:28:04;;;;;;;2.47;1.10;;;6.40;99.90;;;;;;5119957;28;20429;-53
2021/12/18 09:30:31;;;;;;;3.97;2.27;;;6.50;99.90;;;;;;5120178;28;20882;-53
2021/12/18 09:32:59;;;;;;;1.27;0.80;;;6.50;99.90;;;;;;5120163;28;20461;-52
2021/12/18 09:35:26;;;;;;;2.13;1.63;;;6.60;99.90;;;;;;5119147;28;20514;-53
2021/12/18 09:37:53;;;;;;;4.23;2.37;;;6.60;99.90;;;;;;5122015;28;20481;-56
2021/12/18 09:40:20;;;;;;;2.93;1.90;;;6.60;99.90;;;;;;5122425;28;20756;-55
2021/12/18 09:42:48;;;;;;;3.00;1.17;;;6.60;99.90;;;;;;5121836;28;20465;-57
2021/12/18 09:45:16;;;;;;;4.77;2.47;;;6.60;99.90;;;;;;5121785;28;20450;-56
2021/12/18 09:47:45;;;;;;;3.57;2.37;;;6.70;99.90;;;;;;5121524;28;20474;-57
2021/12/18 09:50:12;;;;;;;1.67;1.30;;;6.60;99.90;;;;;;5120989;28;20947;-57
2021/12/18 09:52:39;;;;;;;3.93;1.73;;;6.70;99.90;;;;;;5121665;28;20476;-56
2021/12/18 09:55:08;;;;;;;2.80;1.47;;;6.80;99.90;;;;;;5121157;28;20456;-57
2021/12/18 09:57:35;;;;;;;4.80;1.97;;;6.90;99.90;;;;;;5120687;28;20509;-57
2021/12/18 10:00:05;;;;;;;3.00;1.77;;;6.90;99.90;;;;;;5121403;28;20538;-57
2021/12/18 10:02:32;;;;;;;4.00;2.37;;;6.80;99.90;;;;;;5121453;28;20442;-57
2021/12/18 10:04:58;;;;;;;1.50;1.00;;;6.90;99.90;;;;;;5120302;28;20465;-58
2021/12/18 10:07:34;;;;;;;4.80;2.27;;;6.90;99.90;;;;;;5120085;28;20456;-56
2021/12/18 10:10:01;;;;;;;4.10;2.67;;;6.90;99.90;;;;;;5101161;28;20480;-56
2021/12/18 10:12:29;;;;;;;2.60;1.70;;;6.80;99.90;;;;;;5100344;28;20950;-53
2021/12/18 10:15:00;;;;;;;3.10;1.53;;;6.80;99.90;;;;;;5099816;28;20482;-54
2021/12/18 10:17:32;;;;;;;2.67;1.60;;;6.90;99.90;;;;;;5121527;28;20436;-55
2021/12/18 10:20:18;;;;;;;2.60;1.50;;;6.90;99.90;;;;;;5120808;28;20795;-57
2021/12/18 10:22:49;;;;;;;4.97;2.23;;;6.90;99.90;;;;;;5119583;28;20538;-54
2021/12/18 10:25:18;;;;;;;4.30;2.33;;;7.00;99.90;;;;;;5120119;28;20882;-56
2021/12/18 10:27:57;;;;;;;2.70;2.17;;;7.00;99.90;;;;;;5120015;28;20479;-57
2021/12/18 10:30:25;;;;;;;3.97;2.93;;;7.10;99.90;;;;;;5120525;28;20593;-57
2021/12/18 10:32:59;;;;;;;2.53;1.23;;;7.10;99.90;;;;;;5120300;28;20480;-55
2021/12/18 10:35:43;;;;;;;3.60;1.60;;;7.10;99.90;;;;;;5121010;28;20433;-56
2021/12/18 10:38:30;;;;;;;2.60;1.37;;;7.00;99.90;;;;;;5117467;28;20445;-57
2021/12/18 10:40:57;;;;;;;4.13;2.00;;;7.00;99.90;;;;;;5119255;28;20445;-56
2021/12/18 10:43:24;;;;;;;3.93;2.30;;;7.00;99.90;;;;;;5120356;28;20455;-56
2021/12/18 10:45:51;;;;;;;2.43;1.90;;;7.10;99.90;;;;;;5120411;28;20463;-54
2021/12/18 10:48:19;;;;;;;2.30;1.20;;;7.10;99.90;;;;;;5123332;28;20484;-56
2021/12/18 10:50:50;;;;;;;2.07;1.03;;;7.00;99.90;;;;;;5124154;28;20449;-56
2021/12/18 10:53:19;;;;;;;1.97;1.37;;;7.00;99.90;;;;;;5125135;28;20502;-53
2021/12/18 10:55:50;;;;;;;2.00;0.90;;;7.10;99.90;;;;;;5124540;28;20442;-53
2021/12/18 10:58:20;;;;;;;2.23;1.40;;;7.10;99.90;;;;;;5124846;28;20430;-57
2021/12/18 11:00:58;;;;;;;2.00;1.20;;;7.10;99.90;;;;;;5124310;28;20454;-56
2021/12/18 11:03:29;;;;;;;1.97;1.40;;;7.10;99.90;;;;;;5124684;28;20559;-54
2021/12/18 11:06:17;;;;;;;4.60;1.80;;;7.00;99.90;;;;;;5123421;28;20490;-57
2021/12/18 11:08:56;;;;;;;1.73;1.23;;;7.10;99.90;;;;;;5123629;28;20782;-57
2021/12/18 11:14:12;;;;;;;1.90;1.30;;;7.10;99.90;;;;;;5118291;28;20485;-55
2021/12/18 11:16:41;;;;;;;1.83;1.27;;;7.20;99.90;;;;;;5123884;28;20441;-57
2021/12/18 11:19:13;;;;;;;3.27;1.60;;;7.20;99.90;;;;;;5124074;28;20467;-57
2021/12/18 11:21:43;;;;;;;2.93;1.50;;;7.10;99.90;;;;;;5123982;28;20556;-57
2021/12/18 11:24:10;;;;;;;3.00;1.40;;;7.10;99.90;;;;;;5122635;28;20444;-57
2021/12/18 11:26:41;;;;;;;3.93;1.70;;;7.10;99.90;;;;;;5121439;28;20525;-56
2021/12/18 11:29:14;;;;;;;3.23;1.33;;;7.20;99.90;;;;;;5122178;28;20441;-57
2021/12/18 11:31:49;;;;;;;2.17;1.20;;;7.20;99.90;;;;;;5122696;28;20969;-57
2021/12/18 11:34:17;;;;;;;6.80;1.40;;;7.20;99.90;;;;;;5122976;28;20529;-57
2021/12/18 11:36:45;;;;;;;2.83;2.33;;;7.20;99.90;;;;;;5122948;28;20441;-56
2021/12/18 11:39:13;;;;;;;1.60;1.33;;;7.20;99.90;;;;;;5123445;28;20453;-57
2021/12/18 11:41:49;;;;;;;2.70;1.10;;;7.20;99.90;;;;;;5124051;28;20438;-57
2021/12/18 11:44:27;;;;;;;1.67;1.07;;;7.20;99.90;;;;;;5123921;28;20864;-58
2021/12/18 11:46:54;;;;;;;1.33;1.10;;;7.10;99.90;;;;;;5124083;28;20449;-58
2021/12/18 11:49:25;;;;;;;2.13;1.00;;;7.10;99.90;;;;;;5123586;28;21006;-56
2021/12/18 11:52:00;;;;;;;1.60;1.23;;;7.00;99.90;;;;;;5123606;28;20565;-57
2021/12/18 11:54:42;;;;;;;1.00;0.60;;;7.10;99.90;;;;;;5122388;28;20851;-58
2021/12/18 11:57:09;;;;;;;1.60;0.97;;;7.10;99.90;;;;;;5121576;28;20441;-57
2021/12/18 11:59:41;;;;;;;1.63;1.07;;;7.10;99.90;;;;;;5122757;28;20822;-57
2021/12/18 12:02:09;;;;;;;1.40;1.13;;;7.10;99.90;;;;;;5120407;28;20429;-57
2021/12/18 12:05:00;;;;;;;1.47;0.70;;;7.20;99.90;;;;;;5122399;28;20441;-55
2021/12/18 12:07:27;;;;;;;0.90;0.80;;;7.30;99.90;;;;;;5120624;28;20452;-57
2021/12/18 12:10:35;;;;;;;2.40;0.80;;;7.30;99.90;;;;;;5122647;28;20767;-58
2021/12/18 12:13:01;;;;;;;1.77;1.03;;;7.30;99.90;;;;;;5123304;28;20477;-58
2021/12/18 12:15:29;;;;;;;3.73;0.80;;;7.30;99.90;;;;;;5122388;28;20441;-58
2021/12/18 12:17:58;;;;;;;1.43;0.90;;;7.30;99.90;;;;;;5122154;28;20502;-57
2021/12/18 12:20:40;;;;;;;2.53;2.33;;;7.40;99.90;;;;;;5123019;28;20476;-57
2021/12/18 12:23:09;;;;;;;1.20;0.80;;;7.30;99.90;;;;;;5120359;28;20853;-57
2021/12/18 12:25:44;;;;;;;1.10;1.00;;;7.30;99.90;;;;;;5122712;28;20449;-56
2021/12/18 12:28:14;;;;;;;2.20;1.20;;;7.30;99.90;;;;;;5119645;28;20472;-57
2021/12/18 12:30:45;;;;;;;1.73;0.83;;;7.40;99.90;;;;;;5122090;28;20524;-57
2021/12/18 12:33:22;;;;;;;1.87;1.07;;;7.40;99.90;;;;;;5122730;28;20782;-57
2021/12/18 12:36:23;;;;;;;2.50;1.20;;;7.40;99.90;;;;;;5122426;28;20433;-56
2021/12/18 12:38:58;;;;;;;3.23;1.50;;;7.40;99.90;;;;;;5119723;28;20435;-56
2021/12/18 12:41:34;;;;;;;1.77;1.00;;;7.30;99.90;;;;;;5123409;28;20961;-54
2021/12/18 12:44:05;;;;;;;1.97;0.80;;;7.40;99.90;;;;;;5121960;28;20413;-57
2021/12/18 12:46:32;;;;;;;1.50;0.90;;;7.40;99.90;;;;;;5121666;28;20480;-57
2021/12/18 12:49:05;;;;;;;1.00;0.77;;;7.40;99.90;;;;;;5121862;28;20449;-54
2021/12/18 12:52:08;;;;;;;1.83;1.07;;;7.50;99.90;;;;;;5121703;28;20461;-57
2021/12/18 12:54:46;;;;;;;1.67;1.07;;;7.50;99.90;;;;;;5058864;28;20507;-55
2021/12/18 12:57:32;;;;;;;0.80;0.60;;;7.50;99.90;;;;;;5073354;28;20470;-55
2021/12/18 13:00:32;;;;;;;1.10;0.80;;;7.60;99.90;;;;;;5122024;28;20441;-56
2021/12/18 13:03:01;;;;;;;1.80;1.23;;;7.50;99.90;;;;;;5121976;28;20462;-57
2021/12/18 13:05:30;;;;;;;0.90;0.70;;;7.50;99.90;;;;;;5122385;28;20434;-57
2021/12/18 13:07:59;;;;;;;1.10;0.87;;;7.50;99.90;;;;;;5122697;28;20518;-57
2021/12/18 13:10:29;;;;;;;1.23;1.07;;;7.50;99.90;;;;;;5122028;28;20459;-54
2021/12/18 13:12:57;;;;;;;1.50;0.77;;;7.50;99.90;;;;;;5122106;28;20472;-54
2021/12/18 13:15:26;;;;;;;3.63;1.20;;;7.50;99.90;;;;;;5122278;28;20446;-55
2021/12/18 13:18:05;;;;;;;1.47;0.83;;;7.50;99.90;;;;;;5121598;28;20434;-57
2021/12/18 13:20:41;;;;;;;0.90;0.60;;;7.50;99.90;;;;;;5121848;28;20465;-54
2021/12/18 13:23:09;;;;;;;1.73;1.00;;;7.60;99.90;;;;;;5121805;28;20517;-51
2021/12/18 13:25:47;;;;;;;0.90;0.60;;;7.60;99.90;;;;;;5121811;28;20754;-60
2021/12/18 13:28:14;;;;;;;1.63;0.97;;;7.60;99.90;;;;;;5121458;28;20422;-54
2021/12/18 13:30:41;;;;;;;1.30;0.90;;;7.70;99.90;;;;;;5121321;28;20465;-54
2021/12/18 13:33:08;;;;;;;1.70;1.00;;;7.60;99.90;;;;;;5121164;28;20481;-52
2021/12/18 13:35:39;;;;;;;1.83;0.80;;;7.70;99.90;;;;;;5121495;28;20513;-58
2021/12/18 13:38:10;;;;;;;1.20;0.90;;;7.70;99.90;;;;;;5121474;28;20426;-57
2021/12/18 13:40:39;;;;;;;1.70;1.17;;;7.70;99.90;;;;;;5120828;28;20429;-57
2021/12/18 13:43:07;;;;;;;1.87;1.20;;;7.60;99.90;;;;;;5121224;28;20437;-54